Melder, Louisiana
Current Conditions -  °F | °C
As of 12:15 PM on Thursday 30 Oct 2014 (Local Time) from KACP Reporting Station
Clear Clear  
Wind Chill: 70°   Ceiling: Unl
Heat Index: 70°   Visibility: 10mi
Dew Point: 45°   Wind: 8mph
Humidity: 40%   Direction: 90°E
Pressure: 30.15"   Gusts: NA
Location:  30.9922°N, 92.6266°W
Report Text: KACP 301715Z AUTO 09007KT 10SM CLR 21/07 A3015 RMK AO2 T02120071
Loading
Personal Weather Stations






























Interactive Weather Map
Tropical Storm Tracking
New forecast layout! Learn more

10-Day Weather Forecast

Advertisements
Track Severe Weather on mobile